sensor_id;sensor_type;location;lat;lon;timestamp;pressure;altitude;pressure_sealevel;temperature;humidity
21096;BME280;10706;49.036;12.112;2022-12-08T00:01:14;97297.72;;;-0.10;100.00
21096;BME280;10706;49.036;12.112;2022-12-08T00:03:40;97299.13;;;-0.23;99.54
21096;BME280;10706;49.036;12.112;2022-12-08T00:06:23;97303.69;;;-0.40;99.79
21096;BME280;10706;49.036;12.112;2022-12-08T00:09:15;97295.91;;;-0.48;99.55
21096;BME280;10706;49.036;12.112;2022-12-08T00:11:52;97296.63;;;-0.54;99.49
21096;BME280;10706;49.036;12.112;2022-12-08T00:14:22;97293.41;;;-0.64;99.76
21096;BME280;10706;49.036;12.112;2022-12-08T00:16:48;97285.44;;;-0.71;100.00
21096;BME280;10706;49.036;12.112;2022-12-08T00:19:14;97282.22;;;-0.81;100.00
21096;BME280;10706;49.036;12.112;2022-12-08T00:21:40;97283.22;;;-0.82;100.00
21096;BME280;10706;49.036;12.112;2022-12-08T00:24:06;97279.50;;;-0.88;100.00
21096;BME280;10706;49.036;12.112;2022-12-08T00:26:32;97282.13;;;-0.88;100.00
21096;BME280;10706;49.036;12.112;2022-12-08T00:28:57;97277.50;;;-0.86;100.00
21096;BME280;10706;49.036;12.112;2022-12-08T00:31:23;97277.50;;;-0.86;100.00
21096;BME280;10706;49.036;12.112;2022-12-08T00:33:49;97279.13;;;-0.85;100.00
21096;BME280;10706;49.036;12.112;2022-12-08T00:36:15;97278.31;;;-0.85;100.00
21096;BME280;10706;49.036;12.112;2022-12-08T00:38:41;97278.31;;;-0.85;100.00
21096;BME280;10706;49.036;12.112;2022-12-08T00:41:12;97277.16;;;-0.83;100.00
21096;BME280;10706;49.036;12.112;2022-12-08T00:43:38;97273.88;;;-0.85;100.00
21096;BME280;10706;49.036;12.112;2022-12-08T00:46:04;97270.94;;;-0.82;100.00
21096;BME280;10706;49.036;12.112;2022-12-08T00:48:30;97278.38;;;-0.70;100.00
21096;BME280;10706;49.036;12.112;2022-12-08T00:50:56;97273.63;;;-0.67;100.00
21096;BME280;10706;49.036;12.112;2022-12-08T00:53:22;97273.44;;;-0.65;100.00
21096;BME280;10706;49.036;12.112;2022-12-08T00:55:47;97276.53;;;-0.62;100.00
21096;BME280;10706;49.036;12.112;2022-12-08T00:58:13;97281.78;;;-0.62;100.00
21096;BME280;10706;49.036;12.112;2022-12-08T01:00:40;97274.88;;;-0.63;100.00
21096;BME280;10706;49.036;12.112;2022-12-08T01:03:12;97270.91;;;-0.59;100.00
21096;BME280;10706;49.036;12.112;2022-12-08T01:05:38;97271.28;;;-0.62;100.00
21096;BME280;10706;49.036;12.112;2022-12-08T01:08:06;97274.88;;;-0.63;100.00
21096;BME280;10706;49.036;12.112;2022-12-08T01:10:35;97270.28;;;-0.61;100.00
21096;BME280;10706;49.036;12.112;2022-12-08T01:13:01;97274.84;;;-0.54;100.00
21096;BME280;10706;49.036;12.112;2022-12-08T01:15:26;97274.00;;;-0.55;100.00
21096;BME280;10706;49.036;12.112;2022-12-08T01:17:52;97272.66;;;-0.51;100.00
21096;BME280;10706;49.036;12.112;2022-12-08T01:20:18;97273.03;;;-0.54;100.00
21096;BME280;10706;49.036;12.112;2022-12-08T01:22:44;97276.56;;;-0.47;100.00
21096;BME280;10706;49.036;12.112;2022-12-08T01:25:09;97279.47;;;-0.42;100.00
21096;BME280;10706;49.036;12.112;2022-12-08T01:27:35;97271.81;;;-0.43;100.00
21096;BME280;10706;49.036;12.112;2022-12-08T01:30:01;97271.59;;;-0.42;100.00
21096;BME280;10706;49.036;12.112;2022-12-08T01:32:27;97269.81;;;-0.41;100.00
21096;BME280;10706;49.036;12.112;2022-12-08T01:34:53;97268.88;;;-0.48;100.00
21096;BME280;10706;49.036;12.112;2022-12-08T01:37:19;97273.41;;;-0.42;100.00
21096;BME280;10706;49.036;12.112;2022-12-08T01:39:45;97270.28;;;-0.37;100.00
21096;BME280;10706;49.036;12.112;2022-12-08T01:42:22;97267.91;;;-0.32;100.00
21096;BME280;10706;49.036;12.112;2022-12-08T01:44:59;97261.41;;;-0.36;100.00
21096;BME280;10706;49.036;12.112;2022-12-08T01:47:35;97255.53;;;-0.38;100.00
21096;BME280;10706;49.036;12.112;2022-12-08T01:50:05;97253.25;;;-0.42;100.00
21096;BME280;10706;49.036;12.112;2022-12-08T01:52:39;97261.06;;;-0.33;100.00
21096;BME280;10706;49.036;12.112;2022-12-08T01:55:35;97253.34;;;-0.35;100.00
21096;BME280;10706;49.036;12.112;2022-12-08T01:58:20;97260.13;;;-0.41;100.00
21096;BME280;10706;49.036;12.112;2022-12-08T02:00:48;97254.41;;;-0.44;100.00
21096;BME280;10706;49.036;12.112;2022-12-08T02:03:28;97251.63;;;-0.43;100.00
21096;BME280;10706;49.036;12.112;2022-12-08T02:05:56;97248.63;;;-0.40;100.00
21096;BME280;10706;49.036;12.112;2022-12-08T02:08:22;97254.88;;;-0.41;100.00
21096;BME280;10706;49.036;12.112;2022-12-08T02:10:50;97251.53;;;-0.34;100.00
21096;BME280;10706;49.036;12.112;2022-12-08T02:13:18;97237.44;;;-0.33;100.00
21096;BME280;10706;49.036;12.112;2022-12-08T02:25:22;97227.66;;;-0.40;100.00
21096;BME280;10706;49.036;12.112;2022-12-08T02:28:22;97228.50;;;-0.39;100.00
21096;BME280;10706;49.036;12.112;2022-12-08T02:31:35;97231.19;;;-0.32;100.00
21096;BME280;10706;49.036;12.112;2022-12-08T02:37:07;97226.31;;;-0.35;100.00
21096;BME280;10706;49.036;12.112;2022-12-08T02:42:39;97216.47;;;-0.33;100.00
21096;BME280;10706;49.036;12.112;2022-12-08T02:45:16;97218.72;;;-0.30;100.00
21096;BME280;10706;49.036;12.112;2022-12-08T02:47:44;97212.03;;;-0.18;100.00
21096;BME280;10706;49.036;12.112;2022-12-08T02:50:10;97221.28;;;-0.22;100.00
21096;BME280;10706;49.036;12.112;2022-12-08T02:52:46;97209.50;;;-0.26;100.00
21096;BME280;10706;49.036;12.112;2022-12-08T02:55:27;97202.91;;;-0.22;100.00
21096;BME280;10706;49.036;12.112;2022-12-08T03:12:29;97188.88;;;-0.29;100.00
21096;BME280;10706;49.036;12.112;2022-12-08T03:14:59;97190.59;;;-0.36;100.00
21096;BME280;10706;49.036;12.112;2022-12-08T03:17:28;97190.13;;;-0.40;100.00
21096;BME280;10706;49.036;12.112;2022-12-08T03:20:00;97188.31;;;-0.40;100.00
21096;BME280;10706;49.036;12.112;2022-12-08T03:22:29;97188.31;;;-0.40;100.00
21096;BME280;10706;49.036;12.112;2022-12-08T03:24:56;97184.91;;;-0.25;100.00
21096;BME280;10706;49.036;12.112;2022-12-08T03:27:26;97182.44;;;-0.27;100.00
21096;BME280;10706;49.036;12.112;2022-12-08T03:29:55;97190.44;;;-0.20;100.00
21096;BME280;10706;49.036;12.112;2022-12-08T03:35:32;97175.19;;;-0.40;100.00
21096;BME280;10706;49.036;12.112;2022-12-08T03:38:17;97175.03;;;-0.38;100.00
21096;BME280;10706;49.036;12.112;2022-12-08T03:40:44;97173.25;;;-0.37;100.00
21096;BME280;10706;49.036;12.112;2022-12-08T03:43:30;97170.63;;;-0.37;100.00
21096;BME280;10706;49.036;12.112;2022-12-08T03:45:55;97164.19;;;-0.35;100.00
21096;BME280;10706;49.036;12.112;2022-12-08T03:48:21;97169.44;;;-0.35;100.00
21096;BME280;10706;49.036;12.112;2022-12-08T03:50:47;97171.50;;;-0.30;100.00
21096;BME280;10706;49.036;12.112;2022-12-08T03:53:12;97166.09;;;-0.29;100.00
21096;BME280;10706;49.036;12.112;2022-12-08T03:55:38;97165.56;;;-0.24;100.00
21096;BME280;10706;49.036;12.112;2022-12-08T03:58:04;97168.00;;;-0.37;100.00
21096;BME280;10706;49.036;12.112;2022-12-08T04:00:29;97163.63;;;-0.45;100.00
21096;BME280;10706;49.036;12.112;2022-12-08T04:02:55;97169.94;;;-0.40;100.00
21096;BME280;10706;49.036;12.112;2022-12-08T04:05:21;97173.75;;;-0.42;100.00
21096;BME280;10706;49.036;12.112;2022-12-08T04:07:47;97170.97;;;-0.41;100.00
21096;BME280;10706;49.036;12.112;2022-12-08T04:10:12;97166.72;;;-0.27;100.00
21096;BME280;10706;49.036;12.112;2022-12-08T04:12:38;97162.94;;;-0.24;100.00
21096;BME280;10706;49.036;12.112;2022-12-08T04:15:04;97166.88;;;-0.13;100.00
21096;BME280;10706;49.036;12.112;2022-12-08T04:17:30;97162.09;;;-0.10;100.00
21096;BME280;10706;49.036;12.112;2022-12-08T04:19:56;97159.66;;;-0.11;100.00
21096;BME280;10706;49.036;12.112;2022-12-08T04:22:21;97164.91;;;-0.11;100.00
21096;BME280;10706;49.036;12.112;2022-12-08T04:24:47;97166.81;;;-0.05;100.00
21096;BME280;10706;49.036;12.112;2022-12-08T04:27:13;97171.22;;;-0.06;100.00
21096;BME280;10706;49.036;12.112;2022-12-08T04:29:38;97168.59;;;-0.06;100.00
21096;BME280;10706;49.036;12.112;2022-12-08T04:32:04;97158.66;;;-0.10;100.00
21096;BME280;10706;49.036;12.112;2022-12-08T04:34:30;97164.38;;;-0.07;100.00
21096;BME280;10706;49.036;12.112;2022-12-08T04:36:56;97162.56;;;-0.06;100.00
21096;BME280;10706;49.036;12.112;2022-12-08T04:39:21;97157.69;;;-0.09;100.00
21096;BME280;10706;49.036;12.112;2022-12-08T04:41:47;97154.34;;;-0.18;100.00
21096;BME280;10706;49.036;12.112;2022-12-08T04:44:13;97157.59;;;-0.16;100.00
21096;BME280;10706;49.036;12.112;2022-12-08T04:46:39;97159.47;;;-0.10;100.00
21096;BME280;10706;49.036;12.112;2022-12-08T04:49:04;97154.41;;;-0.11;100.00
21096;BME280;10706;49.036;12.112;2022-12-08T04:51:30;97151.25;;;-0.22;100.00
21096;BME280;10706;49.036;12.112;2022-12-08T04:53:56;97159.84;;;-0.28;100.00
21096;BME280;10706;49.036;12.112;2022-12-08T04:56:22;97159.84;;;-0.28;100.00
21096;BME280;10706;49.036;12.112;2022-12-08T04:58:47;97163.28;;;-0.27;100.00
21096;BME280;10706;49.036;12.112;2022-12-08T05:01:13;97157.75;;;-0.32;100.00
21096;BME280;10706;49.036;12.112;2022-12-08T05:03:39;97163.28;;;-0.42;100.00
21096;BME280;10706;49.036;12.112;2022-12-08T05:06:05;97161.19;;;-0.47;100.00
21096;BME280;10706;49.036;12.112;2022-12-08T05:08:32;97169.13;;;-0.55;100.00
21096;BME280;10706;49.036;12.112;2022-12-08T05:11:07;97167.78;;;-0.51;100.00
21096;BME280;10706;49.036;12.112;2022-12-08T05:13:33;97164.28;;;-0.43;100.00
21096;BME280;10706;49.036;12.112;2022-12-08T05:16:11;97164.47;;;-0.45;100.00
21096;BME280;10706;49.036;12.112;2022-12-08T05:18:39;97162.91;;;-0.39;100.00
21096;BME280;10706;49.036;12.112;2022-12-08T05:21:06;97165.72;;;-0.26;100.00
21096;BME280;10706;49.036;12.112;2022-12-08T05:23:32;97166.81;;;-0.20;100.00
21096;BME280;10706;49.036;12.112;2022-12-08T05:25:58;97165.09;;;-0.13;100.00
21096;BME280;10706;49.036;12.112;2022-12-08T05:28:24;97162.03;;;-0.02;100.00
21096;BME280;10706;49.036;12.112;2022-12-08T05:30:50;97161.28;;;0.05;100.00
21096;BME280;10706;49.036;12.112;2022-12-08T05:33:16;97157.56;;;-0.01;100.00
21096;BME280;10706;49.036;12.112;2022-12-08T05:35:42;97153.69;;;-0.05;100.00
21096;BME280;10706;49.036;12.112;2022-12-08T05:38:09;97156.22;;;-0.12;100.00
21096;BME280;10706;49.036;12.112;2022-12-08T05:40:39;97148.34;;;-0.12;100.00
21096;BME280;10706;49.036;12.112;2022-12-08T05:43:06;97148.34;;;-0.27;100.00
21096;BME280;10706;49.036;12.112;2022-12-08T05:45:32;97142.28;;;-0.42;100.00
21096;BME280;10706;49.036;12.112;2022-12-08T05:47:58;97142.09;;;-0.55;100.00
21096;BME280;10706;49.036;12.112;2022-12-08T05:50:24;97152.22;;;-0.67;100.00
21096;BME280;10706;49.036;12.112;2022-12-08T05:52:50;97151.38;;;-0.68;100.00
21096;BME280;10706;49.036;12.112;2022-12-08T05:55:15;97141.78;;;-0.75;100.00
21096;BME280;10706;49.036;12.112;2022-12-08T05:57:41;97149.03;;;-0.77;100.00
21096;BME280;10706;49.036;12.112;2022-12-08T06:00:07;97139.25;;;-0.84;100.00
21096;BME280;10706;49.036;12.112;2022-12-08T06:02:33;97145.84;;;-0.88;100.00
21096;BME280;10706;49.036;12.112;2022-12-08T06:05:00;97144.97;;;-0.80;100.00
21096;BME280;10706;49.036;12.112;2022-12-08T06:07:25;97154.63;;;-0.81;100.00
21096;BME280;10706;49.036;12.112;2022-12-08T06:09:51;97144.84;;;-0.87;100.00
21096;BME280;10706;49.036;12.112;2022-12-08T06:12:17;97146.50;;;-0.86;100.00
21096;BME280;10706;49.036;12.112;2022-12-08T06:14:43;97150.00;;;-0.93;100.00
21096;BME280;10706;49.036;12.112;2022-12-08T06:17:08;97152.06;;;-0.89;100.00
21096;BME280;10706;49.036;12.112;2022-12-08T06:19:34;97143.13;;;-0.94;100.00
21096;BME280;10706;49.036;12.112;2022-12-08T06:22:00;97135.88;;;-0.92;100.00
21096;BME280;10706;49.036;12.112;2022-12-08T06:24:26;97143.28;;;-0.96;100.00
21096;BME280;10706;49.036;12.112;2022-12-08T06:26:51;97134.16;;;-1.00;100.00
21096;BME280;10706;49.036;12.112;2022-12-08T06:29:17;97135.34;;;-1.03;100.00
21096;BME280;10706;49.036;12.112;2022-12-08T06:31:43;97146.63;;;-1.02;100.00
21096;BME280;10706;49.036;12.112;2022-12-08T06:34:09;97136.47;;;-1.05;100.00
21096;BME280;10706;49.036;12.112;2022-12-08T06:36:34;97135.84;;;-1.07;100.00
21096;BME280;10706;49.036;12.112;2022-12-08T06:39:00;97131.16;;;-1.12;100.00
21096;BME280;10706;49.036;12.112;2022-12-08T06:41:26;97148.09;;;-1.23;100.00
21096;BME280;10706;49.036;12.112;2022-12-08T06:43:55;97154.84;;;-1.28;100.00
21096;BME280;10706;49.036;12.112;2022-12-08T06:46:22;97144.91;;;-1.33;100.00
21096;BME280;10706;49.036;12.112;2022-12-08T06:48:47;97143.25;;;-1.34;100.00
21096;BME280;10706;49.036;12.112;2022-12-08T06:51:18;97144.34;;;-1.28;100.00
21096;BME280;10706;49.036;12.112;2022-12-08T06:53:45;97150.69;;;-1.23;100.00
21096;BME280;10706;49.036;12.112;2022-12-08T06:56:12;97152.69;;;-1.25;100.00
21096;BME280;10706;49.036;12.112;2022-12-08T06:58:40;97151.50;;;-1.22;100.00
21096;BME280;10706;49.036;12.112;2022-12-08T07:01:09;97153.50;;;-1.24;100.00
21096;BME280;10706;49.036;12.112;2022-12-08T07:03:37;97154.31;;;-1.24;100.00
21096;BME280;10706;49.036;12.112;2022-12-08T07:06:03;97156.06;;;-1.16;100.00
21096;BME280;10706;49.036;12.112;2022-12-08T07:08:30;97151.16;;;-1.19;100.00
21096;BME280;10706;49.036;12.112;2022-12-08T07:10:56;97154.31;;;-1.24;100.00
21096;BME280;10706;49.036;12.112;2022-12-08T07:13:22;97155.63;;;-1.28;100.00
21096;BME280;10706;49.036;12.112;2022-12-08T07:15:48;97159.19;;;-1.21;100.00
21096;BME280;10706;49.036;12.112;2022-12-08T07:18:13;97158.47;;;-1.29;100.00
21096;BME280;10706;49.036;12.112;2022-12-08T07:20:40;97151.00;;;-1.18;100.00
21096;BME280;10706;49.036;12.112;2022-12-08T07:23:05;97157.69;;;-1.15;100.00
21096;BME280;10706;49.036;12.112;2022-12-08T07:25:31;97156.28;;;-1.03;100.00
21096;BME280;10706;49.036;12.112;2022-12-08T07:27:57;97149.94;;;-1.08;100.00
21096;BME280;10706;49.036;12.112;2022-12-08T07:30:23;97159.09;;;-1.04;100.00
21096;BME280;10706;49.036;12.112;2022-12-08T07:32:48;97150.59;;;-1.06;100.00
21096;BME280;10706;49.036;12.112;2022-12-08T07:35:14;97149.78;;;-1.07;100.00
21096;BME280;10706;49.036;12.112;2022-12-08T07:37:40;97145.34;;;-1.06;100.00
21096;BME280;10706;49.036;12.112;2022-12-08T07:40:07;97149.69;;;-0.99;100.00
21096;BME280;10706;49.036;12.112;2022-12-08T07:42:33;97142.72;;;-1.06;100.00
21096;BME280;10706;49.036;12.112;2022-12-08T07:44:59;97149.34;;;-0.95;100.00
21096;BME280;10706;49.036;12.112;2022-12-08T07:47:25;97154.72;;;-0.74;100.00
21096;BME280;10706;49.036;12.112;2022-12-08T07:49:51;97149.66;;;-0.75;100.00
21096;BME280;10706;49.036;12.112;2022-12-08T07:52:17;97143.16;;;-0.80;100.00
21096;BME280;10706;49.036;12.112;2022-12-08T07:54:42;97154.25;;;-0.77;100.00
21096;BME280;10706;49.036;12.112;2022-12-08T07:57:08;97155.47;;;-0.65;100.00
21096;BME280;10706;49.036;12.112;2022-12-08T07:59:34;97153.03;;;-0.67;100.00
21096;BME280;10706;49.036;12.112;2022-12-08T08:02:00;97149.78;;;-0.54;100.00
21096;BME280;10706;49.036;12.112;2022-12-08T08:04:26;97153.78;;;-0.43;100.00
21096;BME280;10706;49.036;12.112;2022-12-08T08:06:51;97168.00;;;-0.37;100.00
21096;BME280;10706;49.036;12.112;2022-12-08T08:09:17;97163.19;;;-0.49;100.00
21096;BME280;10706;49.036;12.112;2022-12-08T08:11:43;97162.47;;;-0.43;100.00
21096;BME280;10706;49.036;12.112;2022-12-08T08:14:09;97167.06;;;-0.45;100.00
21096;BME280;10706;49.036;12.112;2022-12-08T08:16:34;97164.16;;;-0.50;100.00
21096;BME280;10706;49.036;12.112;2022-12-08T08:19:00;97164.97;;;-0.49;99.81
21096;BME280;10706;49.036;12.112;2022-12-08T08:21:26;97162.53;;;-0.51;100.00
21096;BME280;10706;49.036;12.112;2022-12-08T08:23:52;97157.03;;;-0.56;100.00
21096;BME280;10706;49.036;12.112;2022-12-08T08:26:17;97156.41;;;-0.58;100.00
21096;BME280;10706;49.036;12.112;2022-12-08T08:28:43;97155.47;;;-0.65;100.00
21096;BME280;10706;49.036;12.112;2022-12-08T08:31:11;97160.63;;;-0.57;100.00
21096;BME280;10706;49.036;12.112;2022-12-08T08:33:37;97154.59;;;-0.57;99.97
21096;BME280;10706;49.036;12.112;2022-12-08T08:36:08;97152.94;;;-0.59;99.92
21096;BME280;10706;49.036;12.112;2022-12-08T08:38:36;97156.47;;;-0.66;100.00
21096;BME280;10706;49.036;12.112;2022-12-08T08:41:09;97164.44;;;-0.60;100.00
21096;BME280;10706;49.036;12.112;2022-12-08T08:43:36;97167.59;;;-0.49;99.93
21096;BME280;10706;49.036;12.112;2022-12-08T08:46:03;97160.00;;;-0.44;100.00
21096;BME280;10706;49.036;12.112;2022-12-08T08:48:30;97161.00;;;-0.30;98.80
21096;BME280;10706;49.036;12.112;2022-12-08T08:50:57;97166.88;;;-0.28;99.11
21096;BME280;10706;49.036;12.112;2022-12-08T08:53:23;97170.16;;;-0.26;98.63
21096;BME280;10706;49.036;12.112;2022-12-08T08:55:50;97171.25;;;-0.35;99.02
21096;BME280;10706;49.036;12.112;2022-12-08T08:58:16;97167.34;;;-0.40;98.49
21096;BME280;10706;49.036;12.112;2022-12-08T09:00:43;97163.72;;;-0.38;99.63
21096;BME280;10706;49.036;12.112;2022-12-08T09:03:08;97157.13;;;-0.34;99.92
21096;BME280;10706;49.036;12.112;2022-12-08T09:05:37;97168.41;;;-0.34;99.11
21096;BME280;10706;49.036;12.112;2022-12-08T09:08:03;97162.91;;;-0.39;99.19
21096;BME280;10706;49.036;12.112;2022-12-08T09:10:28;97161.28;;;-0.40;99.12
21096;BME280;10706;49.036;12.112;2022-12-08T09:12:54;97167.09;;;-0.30;99.28
21096;BME280;10706;49.036;12.112;2022-12-08T09:15:20;97165.00;;;-0.20;98.88
21096;BME280;10706;49.036;12.112;2022-12-08T09:17:46;97170.97;;;-0.11;99.73
21096;BME280;10706;49.036;12.112;2022-12-08T09:20:11;97164.06;;;0.18;98.61
21096;BME280;10706;49.036;12.112;2022-12-08T09:22:37;97164.63;;;0.28;97.52
21096;BME280;10706;49.036;12.112;2022-12-08T09:25:03;97165.59;;;0.27;96.97
21096;BME280;10706;49.036;12.112;2022-12-08T09:27:30;97155.16;;;0.70;96.45
21096;BME280;10706;49.036;12.112;2022-12-08T09:29:56;97162.97;;;0.64;95.49
21096;BME280;10706;49.036;12.112;2022-12-08T09:32:22;97153.16;;;0.72;95.02
21096;BME280;10706;49.036;12.112;2022-12-08T09:34:48;97151.78;;;0.76;95.10
21096;BME280;10706;49.036;12.112;2022-12-08T09:37:13;97149.31;;;0.75;95.65
21096;BME280;10706;49.036;12.112;2022-12-08T09:39:39;97148.53;;;0.96;94.83
21096;BME280;10706;49.036;12.112;2022-12-08T09:42:05;97142.00;;;1.13;94.82
21096;BME280;10706;49.036;12.112;2022-12-08T09:47:20;97136.38;;;1.16;92.25
21096;BME280;10706;49.036;12.112;2022-12-08T09:50:26;97133.47;;;1.68;100.00
21096;BME280;10706;49.036;12.112;2022-12-08T09:56:00;97118.91;;;3.15;88.67
21096;BME280;10706;49.036;12.112;2022-12-08T09:59:24;97132.47;;;2.79;86.24
21096;BME280;10706;49.036;12.112;2022-12-08T10:01:52;97120.97;;;2.18;86.80
21096;BME280;10706;49.036;12.112;2022-12-08T10:13:07;97113.09;;;1.42;89.51
21096;BME280;10706;49.036;12.112;2022-12-08T10:18:24;97110.63;;;1.40;91.81
21096;BME280;10706;49.036;12.112;2022-12-08T10:20:51;97100.66;;;1.29;90.40
21096;BME280;10706;49.036;12.112;2022-12-08T10:23:35;97101.69;;;1.28;91.48
21096;BME280;10706;49.036;12.112;2022-12-08T10:26:11;97098.53;;;1.46;89.45
21096;BME280;10706;49.036;12.112;2022-12-08T10:28:37;97099.66;;;1.30;89.67
21096;BME280;10706;49.036;12.112;2022-12-08T10:31:02;97093.09;;;1.19;90.50
21096;BME280;10706;49.036;12.112;2022-12-08T10:33:31;97099.69;;;1.08;91.38
21096;BME280;10706;49.036;12.112;2022-12-08T10:35:59;97099.50;;;1.10;91.58
21096;BME280;10706;49.036;12.112;2022-12-08T10:38:32;97093.38;;;1.31;91.06
21096;BME280;10706;49.036;12.112;2022-12-08T10:43:42;97083.22;;;1.56;90.02
21096;BME280;10706;49.036;12.112;2022-12-08T10:46:18;97077.13;;;1.55;90.27
21096;BME280;10706;49.036;12.112;2022-12-08T10:51:39;97075.38;;;2.18;89.69
21096;BME280;10706;49.036;12.112;2022-12-08T10:54:34;97071.78;;;2.32;87.84
21096;BME280;10706;49.036;12.112;2022-12-08T10:57:02;97070.38;;;2.49;85.55
21096;BME280;10706;49.036;12.112;2022-12-08T10:59:28;97064.53;;;2.61;84.54
21096;BME280;10706;49.036;12.112;2022-12-08T11:01:57;97067.75;;;2.43;85.79
21096;BME280;10706;49.036;12.112;2022-12-08T11:04:36;97062.84;;;2.26;86.42
21096;BME280;10706;49.036;12.112;2022-12-08T11:07:08;97060.94;;;2.00;86.78
21096;BME280;10706;49.036;12.112;2022-12-08T11:09:44;97059.88;;;1.81;87.45
21096;BME280;10706;49.036;12.112;2022-12-08T11:12:15;97052.25;;;2.00;89.02
21096;BME280;10706;49.036;12.112;2022-12-08T11:20:04;97039.16;;;2.26;85.21
21096;BME280;10706;49.036;12.112;2022-12-08T11:22:55;97031.97;;;1.93;86.45
21096;BME280;10706;49.036;12.112;2022-12-08T11:25:26;97034.34;;;1.82;87.34
21096;BME280;10706;49.036;12.112;2022-12-08T11:27:56;97033.44;;;1.61;87.98
21096;BME280;10706;49.036;12.112;2022-12-08T11:30:38;97036.09;;;1.61;90.49
21096;BME280;10706;49.036;12.112;2022-12-08T11:33:21;97033.88;;;1.58;89.83
21096;BME280;10706;49.036;12.112;2022-12-08T11:36:04;97031.50;;;1.77;89.39
21096;BME280;10706;49.036;12.112;2022-12-08T11:38:33;97034.97;;;1.84;89.28
21096;BME280;10706;49.036;12.112;2022-12-08T11:41:09;97027.06;;;1.84;89.19
21096;BME280;10706;49.036;12.112;2022-12-08T11:44:03;97022.25;;;2.01;88.35
21096;BME280;10706;49.036;12.112;2022-12-08T11:46:45;97029.72;;;1.90;87.24
21096;BME280;10706;49.036;12.112;2022-12-08T11:49:15;97021.03;;;1.97;87.44
21096;BME280;10706;49.036;12.112;2022-12-08T11:51:52;97019.47;;;2.09;86.69
21096;BME280;10706;49.036;12.112;2022-12-08T11:54:34;97012.81;;;2.26;88.53
21096;BME280;10706;49.036;12.112;2022-12-08T11:57:10;97016.50;;;2.52;86.09
21096;BME280;10706;49.036;12.112;2022-12-08T11:59:44;97011.81;;;2.41;87.12
21096;BME280;10706;49.036;12.112;2022-12-08T12:02:27;97006.34;;;2.36;86.04
21096;BME280;10706;49.036;12.112;2022-12-08T12:08:28;97009.53;;;2.11;85.44
21096;BME280;10706;49.036;12.112;2022-12-08T12:20:22;97007.94;;;2.30;85.85
21096;BME280;10706;49.036;12.112;2022-12-08T12:23:01;97003.66;;;2.09;85.96
21096;BME280;10706;49.036;12.112;2022-12-08T12:25:32;96997.00;;;2.26;86.09
21096;BME280;10706;49.036;12.112;2022-12-08T12:28:05;96992.34;;;2.08;87.05
21096;BME280;10706;49.036;12.112;2022-12-08T12:31:06;96990.63;;;1.87;86.95
21096;BME280;10706;49.036;12.112;2022-12-08T12:33:35;96985.06;;;2.24;87.32
21096;BME280;10706;49.036;12.112;2022-12-08T12:36:05;96987.50;;;2.45;85.44
21096;BME280;10706;49.036;12.112;2022-12-08T12:38:44;96986.69;;;2.58;85.09
21096;BME280;10706;49.036;12.112;2022-12-08T12:57:34;96975.50;;;2.03;86.42
21096;BME280;10706;49.036;12.112;2022-12-08T13:05:30;96971.47;;;2.07;85.91
21096;BME280;10706;49.036;12.112;2022-12-08T13:08:20;96968.41;;;2.03;86.07
21096;BME280;10706;49.036;12.112;2022-12-08T13:13:22;96974.00;;;1.80;88.43
21096;BME280;10706;49.036;12.112;2022-12-08T13:15:58;96975.88;;;1.93;88.24
21096;BME280;10706;49.036;12.112;2022-12-08T13:18:41;96973.25;;;1.86;87.80
21096;BME280;10706;49.036;12.112;2022-12-08T13:26:15;96961.75;;;2.14;87.05
21096;BME280;10706;49.036;12.112;2022-12-08T13:31:42;96965.47;;;1.65;88.01
21096;BME280;10706;49.036;12.112;2022-12-08T13:40:17;96959.41;;;1.16;90.07
21096;BME280;10706;49.036;12.112;2022-12-08T13:43:09;96960.78;;;1.05;91.44
21096;BME280;10706;49.036;12.112;2022-12-08T13:45:40;96962.69;;;0.90;91.72
21096;BME280;10706;49.036;12.112;2022-12-08T13:48:28;96968.34;;;0.87;92.97
21096;BME280;10706;49.036;12.112;2022-12-08T13:51:16;96963.84;;;0.81;92.65
21096;BME280;10706;49.036;12.112;2022-12-08T13:54:16;96967.25;;;0.74;94.31
21096;BME280;10706;49.036;12.112;2022-12-08T13:56:44;96970.09;;;0.80;94.46
21096;BME280;10706;49.036;12.112;2022-12-08T13:59:31;96965.84;;;0.78;94.93
21096;BME280;10706;49.036;12.112;2022-12-08T14:02:29;96965.84;;;0.78;94.67
21096;BME280;10706;49.036;12.112;2022-12-08T14:04:57;96963.72;;;0.61;94.88
21096;BME280;10706;49.036;12.112;2022-12-08T14:07:23;96959.44;;;0.60;96.33
21096;BME280;10706;49.036;12.112;2022-12-08T14:09:50;96966.59;;;0.66;95.56
21096;BME280;10706;49.036;12.112;2022-12-08T14:12:26;96963.44;;;0.77;95.95
21096;BME280;10706;49.036;12.112;2022-12-08T14:15:04;96959.09;;;0.97;95.73
21096;BME280;10706;49.036;12.112;2022-12-08T14:17:32;96949.84;;;1.08;93.59
21096;BME280;10706;49.036;12.112;2022-12-08T14:20:16;96943.31;;;0.97;95.51
21096;BME280;10706;49.036;12.112;2022-12-08T14:22:44;96943.66;;;0.81;95.77
21096;BME280;10706;49.036;12.112;2022-12-08T14:25:14;96937.38;;;0.82;95.54
21096;BME280;10706;49.036;12.112;2022-12-08T14:27:40;96934.31;;;0.78;95.27
21096;BME280;10706;49.036;12.112;2022-12-08T14:32:55;96927.19;;;0.66;95.90
21096;BME280;10706;49.036;12.112;2022-12-08T14:35:35;96924.66;;;0.51;95.33
21096;BME280;10706;49.036;12.112;2022-12-08T14:38:04;96923.28;;;0.62;95.25
21096;BME280;10706;49.036;12.112;2022-12-08T14:40:36;96924.59;;;0.72;95.64
21096;BME280;10706;49.036;12.112;2022-12-08T14:53:50;96916.63;;;0.31;96.02
21096;BME280;10706;49.036;12.112;2022-12-08T14:57:01;96923.63;;;0.24;97.18
21096;BME280;10706;49.036;12.112;2022-12-08T14:59:35;96917.91;;;0.13;97.18
21096;BME280;10706;49.036;12.112;2022-12-08T15:04:39;96920.22;;;0.02;97.09
21096;BME280;10706;49.036;12.112;2022-12-08T15:07:13;96921.28;;;-0.14;97.75
21096;BME280;10706;49.036;12.112;2022-12-08T15:09:43;96924.03;;;-0.23;98.47
21096;BME280;10706;49.036;12.112;2022-12-08T15:17:42;96925.09;;;-0.17;100.00